sensor_id;sensor_type;location;lat;lon;timestamp;P1;durP1;ratioP1;P2;durP2;ratioP2
8944;SDS011;4507;40.232;29.132;2022-12-31T00:01:31;194.90;;;146.10;;
8944;SDS011;4507;40.232;29.132;2022-12-31T00:04:01;188.80;;;141.90;;
8944;SDS011;4507;40.232;29.132;2022-12-31T00:06:31;170.93;;;135.47;;
8944;SDS011;4507;40.232;29.132;2022-12-31T00:09:03;192.10;;;138.23;;
8944;SDS011;4507;40.232;29.132;2022-12-31T00:11:34;197.47;;;145.07;;
8944;SDS011;4507;40.232;29.132;2022-12-31T00:14:04;199.90;;;151.73;;
8944;SDS011;4507;40.232;29.132;2022-12-31T00:16:33;188.33;;;148.50;;
8944;SDS011;4507;40.232;29.132;2022-12-31T00:19:06;173.57;;;137.00;;
8944;SDS011;4507;40.232;29.132;2022-12-31T00:21:42;155.43;;;123.83;;
8944;SDS011;4507;40.232;29.132;2022-12-31T00:24:11;141.70;;;118.07;;
8944;SDS011;4507;40.232;29.132;2022-12-31T00:26:40;142.30;;;117.43;;
8944;SDS011;4507;40.232;29.132;2022-12-31T00:29:09;136.87;;;113.03;;
8944;SDS011;4507;40.232;29.132;2022-12-31T00:31:38;148.90;;;118.97;;
8944;SDS011;4507;40.232;29.132;2022-12-31T00:34:08;149.00;;;111.17;;
8944;SDS011;4507;40.232;29.132;2022-12-31T00:36:37;144.90;;;102.60;;
8944;SDS011;4507;40.232;29.132;2022-12-31T00:39:10;125.10;;;97.43;;
8944;SDS011;4507;40.232;29.132;2022-12-31T00:41:39;102.57;;;82.93;;
8944;SDS011;4507;40.232;29.132;2022-12-31T00:44:09;118.93;;;98.10;;
8944;SDS011;4507;40.232;29.132;2022-12-31T00:46:39;134.03;;;108.53;;
8944;SDS011;4507;40.232;29.132;2022-12-31T00:49:07;146.60;;;123.27;;
8944;SDS011;4507;40.232;29.132;2022-12-31T00:51:36;155.37;;;125.77;;
8944;SDS011;4507;40.232;29.132;2022-12-31T00:54:06;162.13;;;134.17;;
8944;SDS011;4507;40.232;29.132;2022-12-31T00:56:37;179.80;;;146.07;;
8944;SDS011;4507;40.232;29.132;2022-12-31T00:59:06;215.33;;;168.50;;
8944;SDS011;4507;40.232;29.132;2022-12-31T01:01:36;211.77;;;165.73;;
8944;SDS011;4507;40.232;29.132;2022-12-31T01:04:07;247.80;;;196.57;;
8944;SDS011;4507;40.232;29.132;2022-12-31T01:06:38;235.47;;;188.90;;
8944;SDS011;4507;40.232;29.132;2022-12-31T01:09:08;216.60;;;172.70;;
8944;SDS011;4507;40.232;29.132;2022-12-31T01:11:40;225.10;;;180.83;;
8944;SDS011;4507;40.232;29.132;2022-12-31T01:14:11;238.23;;;187.37;;
8944;SDS011;4507;40.232;29.132;2022-12-31T01:16:43;214.33;;;166.50;;
8944;SDS011;4507;40.232;29.132;2022-12-31T01:19:14;183.17;;;139.37;;
8944;SDS011;4507;40.232;29.132;2022-12-31T01:21:45;152.43;;;129.83;;
8944;SDS011;4507;40.232;29.132;2022-12-31T01:24:15;149.23;;;119.40;;
8944;SDS011;4507;40.232;29.132;2022-12-31T01:26:45;134.23;;;109.73;;
8944;SDS011;4507;40.232;29.132;2022-12-31T01:29:15;130.17;;;107.97;;
8944;SDS011;4507;40.232;29.132;2022-12-31T01:31:44;111.93;;;92.60;;
8944;SDS011;4507;40.232;29.132;2022-12-31T01:34:13;110.33;;;89.90;;
8944;SDS011;4507;40.232;29.132;2022-12-31T01:36:42;113.50;;;90.40;;
8944;SDS011;4507;40.232;29.132;2022-12-31T01:39:12;101.67;;;85.03;;
8944;SDS011;4507;40.232;29.132;2022-12-31T01:41:42;104.50;;;85.57;;
8944;SDS011;4507;40.232;29.132;2022-12-31T01:47:18;95.50;;;78.63;;
8944;SDS011;4507;40.232;29.132;2022-12-31T01:49:52;89.57;;;75.63;;
8944;SDS011;4507;40.232;29.132;2022-12-31T01:52:26;87.27;;;72.77;;
8944;SDS011;4507;40.232;29.132;2022-12-31T01:54:58;91.00;;;70.23;;
8944;SDS011;4507;40.232;29.132;2022-12-31T01:57:33;85.77;;;69.17;;
8944;SDS011;4507;40.232;29.132;2022-12-31T02:00:06;88.80;;;70.53;;
8944;SDS011;4507;40.232;29.132;2022-12-31T02:02:37;83.37;;;68.30;;
8944;SDS011;4507;40.232;29.132;2022-12-31T02:05:08;110.47;;;90.47;;
8944;SDS011;4507;40.232;29.132;2022-12-31T02:07:43;131.57;;;115.00;;
8944;SDS011;4507;40.232;29.132;2022-12-31T02:10:14;124.77;;;106.27;;
8944;SDS011;4507;40.232;29.132;2022-12-31T02:12:43;126.83;;;103.00;;
8944;SDS011;4507;40.232;29.132;2022-12-31T02:15:14;115.77;;;95.50;;
8944;SDS011;4507;40.232;29.132;2022-12-31T02:18:05;115.00;;;95.30;;
8944;SDS011;4507;40.232;29.132;2022-12-31T02:23:53;92.93;;;73.70;;
8944;SDS011;4507;40.232;29.132;2022-12-31T02:26:45;101.27;;;74.73;;
8944;SDS011;4507;40.232;29.132;2022-12-31T02:32:29;90.33;;;72.70;;
8944;SDS011;4507;40.232;29.132;2022-12-31T02:35:06;87.03;;;70.67;;
8944;SDS011;4507;40.232;29.132;2022-12-31T02:37:39;88.40;;;72.73;;
8944;SDS011;4507;40.232;29.132;2022-12-31T02:40:13;91.57;;;70.20;;
8944;SDS011;4507;40.232;29.132;2022-12-31T02:42:44;90.73;;;69.57;;
8944;SDS011;4507;40.232;29.132;2022-12-31T02:45:24;82.07;;;68.40;;
8944;SDS011;4507;40.232;29.132;2022-12-31T02:48:01;78.00;;;66.17;;
8944;SDS011;4507;40.232;29.132;2022-12-31T02:50:54;76.50;;;65.30;;
8944;SDS011;4507;40.232;29.132;2022-12-31T02:53:38;81.57;;;67.03;;
8944;SDS011;4507;40.232;29.132;2022-12-31T02:56:35;93.23;;;66.50;;
8944;SDS011;4507;40.232;29.132;2022-12-31T02:59:10;88.27;;;66.27;;
8944;SDS011;4507;40.232;29.132;2022-12-31T03:02:02;80.00;;;64.93;;
8944;SDS011;4507;40.232;29.132;2022-12-31T03:04:42;82.23;;;67.80;;
8944;SDS011;4507;40.232;29.132;2022-12-31T03:07:17;83.90;;;65.97;;
8944;SDS011;4507;40.232;29.132;2022-12-31T03:10:07;85.20;;;65.60;;
8944;SDS011;4507;40.232;29.132;2022-12-31T03:12:37;69.07;;;52.53;;
8944;SDS011;4507;40.232;29.132;2022-12-31T03:15:12;97.40;;;76.43;;
8944;SDS011;4507;40.232;29.132;2022-12-31T03:17:58;85.43;;;72.13;;
8944;SDS011;4507;40.232;29.132;2022-12-31T03:20:30;95.53;;;74.27;;
8944;SDS011;4507;40.232;29.132;2022-12-31T03:23:19;88.93;;;75.47;;
8944;SDS011;4507;40.232;29.132;2022-12-31T03:26:10;90.33;;;71.10;;
8944;SDS011;4507;40.232;29.132;2022-12-31T03:28:39;98.87;;;70.20;;
8944;SDS011;4507;40.232;29.132;2022-12-31T03:31:13;89.17;;;69.27;;
8944;SDS011;4507;40.232;29.132;2022-12-31T03:33:44;95.37;;;73.43;;
8944;SDS011;4507;40.232;29.132;2022-12-31T03:36:13;129.93;;;78.50;;
8944;SDS011;4507;40.232;29.132;2022-12-31T03:38:42;125.43;;;84.70;;
8944;SDS011;4507;40.232;29.132;2022-12-31T03:41:18;112.43;;;84.73;;
8944;SDS011;4507;40.232;29.132;2022-12-31T03:43:47;115.70;;;86.63;;
8944;SDS011;4507;40.232;29.132;2022-12-31T03:46:16;137.40;;;87.67;;
8944;SDS011;4507;40.232;29.132;2022-12-31T03:48:48;125.47;;;87.33;;
8944;SDS011;4507;40.232;29.132;2022-12-31T03:51:17;135.90;;;86.70;;
8944;SDS011;4507;40.232;29.132;2022-12-31T03:53:46;125.50;;;84.67;;
8944;SDS011;4507;40.232;29.132;2022-12-31T03:56:15;110.47;;;83.77;;
8944;SDS011;4507;40.232;29.132;2022-12-31T03:58:44;96.77;;;77.53;;
8944;SDS011;4507;40.232;29.132;2022-12-31T04:01:13;100.90;;;76.43;;
8944;SDS011;4507;40.232;29.132;2022-12-31T04:03:42;92.13;;;69.47;;
8944;SDS011;4507;40.232;29.132;2022-12-31T04:06:13;81.20;;;65.23;;
8944;SDS011;4507;40.232;29.132;2022-12-31T04:08:42;84.87;;;67.83;;
8944;SDS011;4507;40.232;29.132;2022-12-31T04:11:12;86.93;;;67.70;;
8944;SDS011;4507;40.232;29.132;2022-12-31T04:13:46;84.13;;;68.83;;
8944;SDS011;4507;40.232;29.132;2022-12-31T04:16:15;88.83;;;67.63;;
8944;SDS011;4507;40.232;29.132;2022-12-31T04:18:45;92.50;;;67.43;;
8944;SDS011;4507;40.232;29.132;2022-12-31T04:21:15;83.83;;;67.03;;
8944;SDS011;4507;40.232;29.132;2022-12-31T04:23:45;88.53;;;67.23;;
8944;SDS011;4507;40.232;29.132;2022-12-31T04:26:14;87.27;;;67.83;;
8944;SDS011;4507;40.232;29.132;2022-12-31T04:28:43;80.50;;;66.27;;
8944;SDS011;4507;40.232;29.132;2022-12-31T04:31:12;86.70;;;66.43;;
8944;SDS011;4507;40.232;29.132;2022-12-31T04:33:41;101.27;;;67.77;;
8944;SDS011;4507;40.232;29.132;2022-12-31T04:36:10;85.30;;;68.17;;
8944;SDS011;4507;40.232;29.132;2022-12-31T04:38:40;82.73;;;66.13;;
8944;SDS011;4507;40.232;29.132;2022-12-31T04:41:09;93.90;;;68.40;;
8944;SDS011;4507;40.232;29.132;2022-12-31T04:43:46;92.20;;;66.43;;
8944;SDS011;4507;40.232;29.132;2022-12-31T04:46:17;94.57;;;71.57;;
8944;SDS011;4507;40.232;29.132;2022-12-31T04:48:47;89.17;;;69.63;;
8944;SDS011;4507;40.232;29.132;2022-12-31T04:51:16;101.67;;;80.57;;
8944;SDS011;4507;40.232;29.132;2022-12-31T04:53:47;98.23;;;77.93;;
8944;SDS011;4507;40.232;29.132;2022-12-31T04:56:35;92.93;;;76.37;;
8944;SDS011;4507;40.232;29.132;2022-12-31T04:59:04;94.07;;;74.87;;
8944;SDS011;4507;40.232;29.132;2022-12-31T05:01:34;107.73;;;73.00;;
8944;SDS011;4507;40.232;29.132;2022-12-31T05:04:05;97.57;;;71.93;;
8944;SDS011;4507;40.232;29.132;2022-12-31T05:06:34;96.07;;;71.00;;
8944;SDS011;4507;40.232;29.132;2022-12-31T05:09:04;94.83;;;71.37;;
8944;SDS011;4507;40.232;29.132;2022-12-31T05:11:34;95.57;;;72.27;;
8944;SDS011;4507;40.232;29.132;2022-12-31T05:14:05;97.60;;;71.20;;
8944;SDS011;4507;40.232;29.132;2022-12-31T05:16:34;89.70;;;69.20;;
8944;SDS011;4507;40.232;29.132;2022-12-31T05:19:03;85.87;;;67.77;;
8944;SDS011;4507;40.232;29.132;2022-12-31T05:21:53;94.40;;;70.00;;
8944;SDS011;4507;40.232;29.132;2022-12-31T05:24:41;96.37;;;70.67;;
8944;SDS011;4507;40.232;29.132;2022-12-31T05:27:10;90.13;;;67.97;;
8944;SDS011;4507;40.232;29.132;2022-12-31T05:29:39;105.03;;;71.53;;
8944;SDS011;4507;40.232;29.132;2022-12-31T05:32:08;100.53;;;71.43;;
8944;SDS011;4507;40.232;29.132;2022-12-31T05:34:37;90.53;;;68.93;;
8944;SDS011;4507;40.232;29.132;2022-12-31T05:37:06;111.10;;;70.10;;
8944;SDS011;4507;40.232;29.132;2022-12-31T05:39:35;86.70;;;71.67;;
8944;SDS011;4507;40.232;29.132;2022-12-31T05:42:06;91.23;;;71.40;;
8944;SDS011;4507;40.232;29.132;2022-12-31T05:44:35;93.67;;;69.80;;
8944;SDS011;4507;40.232;29.132;2022-12-31T05:47:04;106.60;;;69.40;;
8944;SDS011;4507;40.232;29.132;2022-12-31T05:49:33;93.50;;;69.27;;
8944;SDS011;4507;40.232;29.132;2022-12-31T05:52:21;88.17;;;68.60;;
8944;SDS011;4507;40.232;29.132;2022-12-31T05:54:50;91.97;;;71.10;;
8944;SDS011;4507;40.232;29.132;2022-12-31T05:57:21;90.10;;;72.30;;
8944;SDS011;4507;40.232;29.132;2022-12-31T05:59:50;106.60;;;71.23;;
8944;SDS011;4507;40.232;29.132;2022-12-31T06:02:20;91.27;;;67.73;;
8944;SDS011;4507;40.232;29.132;2022-12-31T06:05:08;93.60;;;68.17;;
8944;SDS011;4507;40.232;29.132;2022-12-31T06:07:38;98.57;;;68.80;;
8944;SDS011;4507;40.232;29.132;2022-12-31T06:10:07;90.70;;;70.13;;
8944;SDS011;4507;40.232;29.132;2022-12-31T06:12:38;92.37;;;66.33;;
8944;SDS011;4507;40.232;29.132;2022-12-31T06:15:07;95.10;;;70.10;;
8944;SDS011;4507;40.232;29.132;2022-12-31T06:17:37;101.80;;;70.00;;
8944;SDS011;4507;40.232;29.132;2022-12-31T06:20:06;113.93;;;70.73;;
8944;SDS011;4507;40.232;29.132;2022-12-31T06:22:38;98.37;;;67.60;;
8944;SDS011;4507;40.232;29.132;2022-12-31T06:25:08;116.03;;;73.07;;
8944;SDS011;4507;40.232;29.132;2022-12-31T06:27:39;109.53;;;73.50;;
8944;SDS011;4507;40.232;29.132;2022-12-31T06:30:10;109.37;;;72.10;;
8944;SDS011;4507;40.232;29.132;2022-12-31T06:32:40;98.30;;;68.20;;
8944;SDS011;4507;40.232;29.132;2022-12-31T06:35:09;100.60;;;70.30;;
8944;SDS011;4507;40.232;29.132;2022-12-31T06:37:38;112.13;;;70.27;;
8944;SDS011;4507;40.232;29.132;2022-12-31T06:40:08;91.80;;;67.93;;
8944;SDS011;4507;40.232;29.132;2022-12-31T06:42:40;112.00;;;76.00;;
8944;SDS011;4507;40.232;29.132;2022-12-31T06:45:09;100.00;;;72.07;;
8944;SDS011;4507;40.232;29.132;2022-12-31T06:47:39;101.63;;;74.93;;
8944;SDS011;4507;40.232;29.132;2022-12-31T06:50:08;110.77;;;70.97;;
8944;SDS011;4507;40.232;29.132;2022-12-31T06:52:37;122.67;;;72.40;;
8944;SDS011;4507;40.232;29.132;2022-12-31T06:55:07;131.90;;;84.47;;
8944;SDS011;4507;40.232;29.132;2022-12-31T06:57:37;145.87;;;86.90;;
8944;SDS011;4507;40.232;29.132;2022-12-31T07:00:09;113.63;;;70.80;;
8944;SDS011;4507;40.232;29.132;2022-12-31T07:05:54;122.07;;;79.63;;
8944;SDS011;4507;40.232;29.132;2022-12-31T07:08:40;99.53;;;72.53;;
8944;SDS011;4507;40.232;29.132;2022-12-31T07:11:17;91.33;;;65.90;;
8944;SDS011;4507;40.232;29.132;2022-12-31T07:14:00;110.63;;;77.93;;
8944;SDS011;4507;40.232;29.132;2022-12-31T07:16:44;130.30;;;81.77;;
8944;SDS011;4507;40.232;29.132;2022-12-31T07:19:27;111.63;;;79.87;;
8944;SDS011;4507;40.232;29.132;2022-12-31T07:22:06;108.37;;;78.00;;
8944;SDS011;4507;40.232;29.132;2022-12-31T07:24:40;127.80;;;78.83;;
8944;SDS011;4507;40.232;29.132;2022-12-31T07:27:22;126.17;;;81.57;;
8944;SDS011;4507;40.232;29.132;2022-12-31T07:30:14;114.00;;;82.77;;
8944;SDS011;4507;40.232;29.132;2022-12-31T07:32:55;102.70;;;74.90;;
8944;SDS011;4507;40.232;29.132;2022-12-31T07:35:35;105.17;;;73.97;;
8944;SDS011;4507;40.232;29.132;2022-12-31T07:38:11;92.07;;;70.20;;
8944;SDS011;4507;40.232;29.132;2022-12-31T07:40:50;83.27;;;63.73;;
8944;SDS011;4507;40.232;29.132;2022-12-31T07:43:37;80.13;;;61.50;;
8944;SDS011;4507;40.232;29.132;2022-12-31T07:46:18;84.93;;;62.70;;
8944;SDS011;4507;40.232;29.132;2022-12-31T07:48:54;112.40;;;60.03;;
8944;SDS011;4507;40.232;29.132;2022-12-31T07:51:23;71.87;;;55.87;;
8944;SDS011;4507;40.232;29.132;2022-12-31T07:53:53;65.80;;;52.07;;
8944;SDS011;4507;40.232;29.132;2022-12-31T07:56:22;62.67;;;52.53;;
8944;SDS011;4507;40.232;29.132;2022-12-31T07:58:58;71.80;;;52.93;;
8944;SDS011;4507;40.232;29.132;2022-12-31T08:01:38;82.93;;;52.97;;
8944;SDS011;4507;40.232;29.132;2022-12-31T08:04:16;79.77;;;52.90;;
8944;SDS011;4507;40.232;29.132;2022-12-31T08:07:12;78.53;;;53.07;;
8944;SDS011;4507;40.232;29.132;2022-12-31T08:09:51;68.90;;;51.37;;
8944;SDS011;4507;40.232;29.132;2022-12-31T08:12:31;67.97;;;50.90;;
8944;SDS011;4507;40.232;29.132;2022-12-31T08:15:09;87.50;;;54.83;;
8944;SDS011;4507;40.232;29.132;2022-12-31T08:17:42;80.40;;;52.33;;
8944;SDS011;4507;40.232;29.132;2022-12-31T08:20:12;67.57;;;50.63;;
8944;SDS011;4507;40.232;29.132;2022-12-31T08:22:46;92.83;;;54.53;;
8944;SDS011;4507;40.232;29.132;2022-12-31T08:25:30;78.33;;;53.53;;
8944;SDS011;4507;40.232;29.132;2022-12-31T08:28:10;76.77;;;54.23;;
8944;SDS011;4507;40.232;29.132;2022-12-31T08:30:52;74.30;;;55.37;;
8944;SDS011;4507;40.232;29.132;2022-12-31T08:33:28;84.97;;;53.83;;
8944;SDS011;4507;40.232;29.132;2022-12-31T08:36:20;68.37;;;51.43;;
8944;SDS011;4507;40.232;29.132;2022-12-31T08:38:59;79.27;;;50.70;;
8944;SDS011;4507;40.232;29.132;2022-12-31T08:41:32;63.07;;;49.63;;
8944;SDS011;4507;40.232;29.132;2022-12-31T08:44:10;65.83;;;50.57;;
8944;SDS011;4507;40.232;29.132;2022-12-31T08:46:48;72.60;;;50.83;;
8944;SDS011;4507;40.232;29.132;2022-12-31T08:49:26;62.30;;;49.27;;
8944;SDS011;4507;40.232;29.132;2022-12-31T08:51:57;59.40;;;50.53;;
8944;SDS011;4507;40.232;29.132;2022-12-31T08:54:28;61.40;;;41.20;;
8944;SDS011;4507;40.232;29.132;2022-12-31T08:56:59;78.80;;;50.10;;
8944;SDS011;4507;40.232;29.132;2022-12-31T08:59:39;54.63;;;45.80;;
8944;SDS011;4507;40.232;29.132;2022-12-31T09:02:23;64.17;;;49.23;;
8944;SDS011;4507;40.232;29.132;2022-12-31T09:05:03;60.90;;;48.40;;
8944;SDS011;4507;40.232;29.132;2022-12-31T09:07:40;81.43;;;48.77;;
8944;SDS011;4507;40.232;29.132;2022-12-31T09:10:19;62.83;;;46.70;;
8944;SDS011;4507;40.232;29.132;2022-12-31T09:12:54;61.70;;;47.10;;
8944;SDS011;4507;40.232;29.132;2022-12-31T09:15:35;57.20;;;44.17;;
8944;SDS011;4507;40.232;29.132;2022-12-31T09:18:08;54.10;;;43.70;;
8944;SDS011;4507;40.232;29.132;2022-12-31T09:20:42;67.17;;;44.60;;
8944;SDS011;4507;40.232;29.132;2022-12-31T09:23:11;59.67;;;44.03;;
8944;SDS011;4507;40.232;29.132;2022-12-31T09:25:41;67.03;;;45.00;;
8944;SDS011;4507;40.232;29.132;2022-12-31T09:28:26;53.20;;;42.10;;
8944;SDS011;4507;40.232;29.132;2022-12-31T09:31:07;58.27;;;42.80;;
8944;SDS011;4507;40.232;29.132;2022-12-31T09:33:41;71.93;;;45.33;;
8944;SDS011;4507;40.232;29.132;2022-12-31T09:36:21;52.47;;;43.87;;
8944;SDS011;4507;40.232;29.132;2022-12-31T09:39:13;62.60;;;41.20;;
8944;SDS011;4507;40.232;29.132;2022-12-31T09:51:28;55.50;;;39.20;;
8944;SDS011;4507;40.232;29.132;2022-12-31T09:54:18;47.20;;;39.07;;
8944;SDS011;4507;40.232;29.132;2022-12-31T09:57:21;43.67;;;38.57;;
8944;SDS011;4507;40.232;29.132;2022-12-31T10:00:09;66.87;;;40.43;;
8944;SDS011;4507;40.232;29.132;2022-12-31T10:02:57;56.13;;;37.73;;
8944;SDS011;4507;40.232;29.132;2022-12-31T10:05:45;52.10;;;37.07;;
8944;SDS011;4507;40.232;29.132;2022-12-31T10:08:48;62.80;;;39.20;;
8944;SDS011;4507;40.232;29.132;2022-12-31T10:11:45;49.30;;;37.27;;
8944;SDS011;4507;40.232;29.132;2022-12-31T10:14:40;47.67;;;37.43;;
8944;SDS011;4507;40.232;29.132;2022-12-31T10:17:21;79.13;;;39.43;;
8944;SDS011;4507;40.232;29.132;2022-12-31T10:20:15;45.00;;;35.27;;
8944;SDS011;4507;40.232;29.132;2022-12-31T10:23:03;52.77;;;37.07;;
8944;SDS011;4507;40.232;29.132;2022-12-31T10:28:54;41.03;;;34.10;;
8944;SDS011;4507;40.232;29.132;2022-12-31T10:31:37;48.27;;;35.93;;
8944;SDS011;4507;40.232;29.132;2022-12-31T10:34:20;45.20;;;36.73;;
8944;SDS011;4507;40.232;29.132;2022-12-31T10:36:54;97.17;;;82.57;;
8944;SDS011;4507;40.232;29.132;2022-12-31T10:39:37;63.57;;;51.60;;
8944;SDS011;4507;40.232;29.132;2022-12-31T10:42:25;89.43;;;61.20;;
8944;SDS011;4507;40.232;29.132;2022-12-31T10:45:29;64.90;;;45.33;;
8944;SDS011;4507;40.232;29.132;2022-12-31T10:54:49;70.43;;;45.70;;
8944;SDS011;4507;40.232;29.132;2022-12-31T10:58:08;66.60;;;45.80;;
8944;SDS011;4507;40.232;29.132;2022-12-31T11:01:01;53.40;;;41.20;;
8944;SDS011;4507;40.232;29.132;2022-12-31T11:03:45;60.70;;;43.50;;
8944;SDS011;4507;40.232;29.132;2022-12-31T11:06:43;69.00;;;43.03;;
8944;SDS011;4507;40.232;29.132;2022-12-31T11:09:45;68.93;;;45.07;;
8944;SDS011;4507;40.232;29.132;2022-12-31T11:15:46;60.93;;;40.27;;
8944;SDS011;4507;40.232;29.132;2022-12-31T11:18:26;62.03;;;41.37;;
8944;SDS011;4507;40.232;29.132;2022-12-31T11:21:15;50.97;;;38.57;;
8944;SDS011;4507;40.232;29.132;2022-12-31T11:23:56;65.10;;;41.07;;
8944;SDS011;4507;40.232;29.132;2022-12-31T11:26:35;51.53;;;38.13;;
8944;SDS011;4507;40.232;29.132;2022-12-31T11:29:18;45.33;;;35.67;;
8944;SDS011;4507;40.232;29.132;2022-12-31T11:37:57;62.83;;;37.87;;
8944;SDS011;4507;40.232;29.132;2022-12-31T11:40:39;60.77;;;38.40;;
8944;SDS011;4507;40.232;29.132;2022-12-31T11:43:15;57.03;;;37.20;;
8944;SDS011;4507;40.232;29.132;2022-12-31T11:48:53;70.63;;;52.97;;
8944;SDS011;4507;40.232;29.132;2022-12-31T11:51:38;59.50;;;45.67;;
8944;SDS011;4507;40.232;29.132;2022-12-31T11:57:29;57.20;;;39.40;;
8944;SDS011;4507;40.232;29.132;2022-12-31T12:00:03;48.90;;;39.80;;
8944;SDS011;4507;40.232;29.132;2022-12-31T12:02:43;54.87;;;39.57;;
8944;SDS011;4507;40.232;29.132;2022-12-31T12:05:17;55.30;;;41.37;;
8944;SDS011;4507;40.232;29.132;2022-12-31T12:07:49;55.03;;;40.70;;
8944;SDS011;4507;40.232;29.132;2022-12-31T12:10:23;49.90;;;41.47;;
8944;SDS011;4507;40.232;29.132;2022-12-31T12:13:09;56.33;;;43.33;;
8944;SDS011;4507;40.232;29.132;2022-12-31T12:16:00;51.87;;;44.80;;
8944;SDS011;4507;40.232;29.132;2022-12-31T12:18:33;60.93;;;44.70;;
8944;SDS011;4507;40.232;29.132;2022-12-31T12:21:07;58.83;;;44.47;;
8944;SDS011;4507;40.232;29.132;2022-12-31T12:23:39;87.17;;;70.43;;
8944;SDS011;4507;40.232;29.132;2022-12-31T12:28:58;132.30;;;102.17;;
8944;SDS011;4507;40.232;29.132;2022-12-31T12:31:28;80.70;;;64.57;;
8944;SDS011;4507;40.232;29.132;2022-12-31T12:34:00;57.13;;;48.40;;
8944;SDS011;4507;40.232;29.132;2022-12-31T12:36:31;64.30;;;45.97;;
8944;SDS011;4507;40.232;29.132;2022-12-31T12:39:01;65.27;;;55.43;;
8944;SDS011;4507;40.232;29.132;2022-12-31T12:41:32;83.97;;;66.67;;
8944;SDS011;4507;40.232;29.132;2022-12-31T12:44:01;71.60;;;55.10;;
8944;SDS011;4507;40.232;29.132;2022-12-31T12:46:33;52.23;;;42.50;;
8944;SDS011;4507;40.232;29.132;2022-12-31T12:49:17;60.03;;;44.67;;
8944;SDS011;4507;40.232;29.132;2022-12-31T12:54:53;50.93;;;39.50;;
8944;SDS011;4507;40.232;29.132;2022-12-31T12:57:33;62.67;;;44.80;;
8944;SDS011;4507;40.232;29.132;2022-12-31T13:00:28;64.70;;;37.17;;
8944;SDS011;4507;40.232;29.132;2022-12-31T13:06:35;56.67;;;36.17;;
8944;SDS011;4507;40.232;29.132;2022-12-31T13:09:19;54.57;;;35.70;;
8944;SDS011;4507;40.232;29.132;2022-12-31T13:12:01;67.67;;;37.90;;
8944;SDS011;4507;40.232;29.132;2022-12-31T13:14:40;64.87;;;37.17;;
8944;SDS011;4507;40.232;29.132;2022-12-31T13:17:25;63.70;;;35.90;;
8944;SDS011;4507;40.232;29.132;2022-12-31T13:20:22;49.50;;;36.00;;
8944;SDS011;4507;40.232;29.132;2022-12-31T13:22:58;76.00;;;36.53;;
8944;SDS011;4507;40.232;29.132;2022-12-31T13:25:34;77.50;;;35.57;;
8944;SDS011;4507;40.232;29.132;2022-12-31T13:28:14;52.10;;;34.10;;
8944;SDS011;4507;40.232;29.132;2022-12-31T13:30:45;60.63;;;36.13;;
8944;SDS011;4507;40.232;29.132;2022-12-31T13:33:37;55.93;;;34.77;;
8944;SDS011;4507;40.232;29.132;2022-12-31T13:36:12;49.07;;;35.07;;
8944;SDS011;4507;40.232;29.132;2022-12-31T13:38:45;52.97;;;32.87;;
8944;SDS011;4507;40.232;29.132;2022-12-31T13:41:20;50.17;;;32.33;;
8944;SDS011;4507;40.232;29.132;2022-12-31T13:43:55;38.00;;;29.93;;
8944;SDS011;4507;40.232;29.132;2022-12-31T13:46:33;38.47;;;28.30;;
8944;SDS011;4507;40.232;29.132;2022-12-31T13:49:11;75.67;;;48.10;;
8944;SDS011;4507;40.232;29.132;2022-12-31T13:51:46;55.50;;;33.00;;
8944;SDS011;4507;40.232;29.132;2022-12-31T13:54:37;60.60;;;31.50;;
8944;SDS011;4507;40.232;29.132;2022-12-31T13:57:14;70.50;;;32.57;;
8944;SDS011;4507;40.232;29.132;2022-12-31T13:59:56;55.77;;;30.83;;
8944;SDS011;4507;40.232;29.132;2022-12-31T14:02:38;77.90;;;34.70;;
8944;SDS011;4507;40.232;29.132;2022-12-31T14:05:13;54.63;;;36.00;;
8944;SDS011;4507;40.232;29.132;2022-12-31T14:07:47;55.70;;;35.57;;
8944;SDS011;4507;40.232;29.132;2022-12-31T14:10:23;46.07;;;35.13;;
8944;SDS011;4507;40.232;29.132;2022-12-31T14:13:26;65.40;;;38.73;;
8944;SDS011;4507;40.232;29.132;2022-12-31T14:16:18;65.57;;;39.43;;
8944;SDS011;4507;40.232;29.132;2022-12-31T14:18:55;60.60;;;40.33;;
8944;SDS011;4507;40.232;29.132;2022-12-31T14:21:33;67.13;;;41.73;;
8944;SDS011;4507;40.232;29.132;2022-12-31T14:24:08;59.57;;;41.30;;
8944;SDS011;4507;40.232;29.132;2022-12-31T14:26:43;61.03;;;41.63;;
8944;SDS011;4507;40.232;29.132;2022-12-31T14:29:20;62.67;;;42.17;;
8944;SDS011;4507;40.232;29.132;2022-12-31T14:32:04;55.83;;;40.50;;
8944;SDS011;4507;40.232;29.132;2022-12-31T14:34:44;61.17;;;40.77;;
8944;SDS011;4507;40.232;29.132;2022-12-31T14:37:23;66.40;;;40.40;;
8944;SDS011;4507;40.232;29.132;2022-12-31T14:40:02;60.93;;;39.83;;
8944;SDS011;4507;40.232;29.132;2022-12-31T14:43:05;59.43;;;40.40;;
8944;SDS011;4507;40.232;29.132;2022-12-31T14:45:50;56.30;;;40.33;;
8944;SDS011;4507;40.232;29.132;2022-12-31T14:48:31;56.93;;;40.10;;
8944;SDS011;4507;40.232;29.132;2022-12-31T14:51:06;61.57;;;42.23;;
8944;SDS011;4507;40.232;29.132;2022-12-31T14:53:38;58.20;;;40.63;;
8944;SDS011;4507;40.232;29.132;2022-12-31T14:56:26;63.27;;;40.37;;
8944;SDS011;4507;40.232;29.132;2022-12-31T14:58:58;59.77;;;34.07;;
8944;SDS011;4507;40.232;29.132;2022-12-31T15:01:31;65.87;;;40.73;;
8944;SDS011;4507;40.232;29.132;2022-12-31T15:04:12;72.37;;;42.13;;
8944;SDS011;4507;40.232;29.132;2022-12-31T15:06:46;71.53;;;43.53;;
8944;SDS011;4507;40.232;29.132;2022-12-31T15:09:33;83.13;;;45.60;;
8944;SDS011;4507;40.232;29.132;2022-12-31T15:12:23;63.63;;;41.90;;
8944;SDS011;4507;40.232;29.132;2022-12-31T15:18:18;61.60;;;42.87;;
8944;SDS011;4507;40.232;29.132;2022-12-31T15:23:59;67.33;;;44.13;;
8944;SDS011;4507;40.232;29.132;2022-12-31T15:26:28;70.03;;;45.87;;
8944;SDS011;4507;40.232;29.132;2022-12-31T15:29:01;80.83;;;45.80;;
8944;SDS011;4507;40.232;29.132;2022-12-31T15:31:33;82.83;;;46.33;;
8944;SDS011;4507;40.232;29.132;2022-12-31T15:34:05;75.03;;;46.10;;
8944;SDS011;4507;40.232;29.132;2022-12-31T15:36:51;66.83;;;44.90;;
8944;SDS011;4507;40.232;29.132;2022-12-31T15:39:24;58.83;;;46.03;;
8944;SDS011;4507;40.232;29.132;2022-12-31T15:42:03;80.10;;;49.10;;
8944;SDS011;4507;40.232;29.132;2022-12-31T15:45:05;81.77;;;48.80;;
8944;SDS011;4507;40.232;29.132;2022-12-31T15:47:41;81.43;;;51.03;;
8944;SDS011;4507;40.232;29.132;2022-12-31T15:50:15;95.50;;;57.07;;
8944;SDS011;4507;40.232;29.132;2022-12-31T15:52:49;91.53;;;63.17;;
8944;SDS011;4507;40.232;29.132;2022-12-31T15:55:24;86.13;;;57.73;;
8944;SDS011;4507;40.232;29.132;2022-12-31T15:57:57;77.97;;;55.33;;
8944;SDS011;4507;40.232;29.132;2022-12-31T16:00:35;83.50;;;54.00;;
8944;SDS011;4507;40.232;29.132;2022-12-31T16:03:22;72.77;;;50.93;;
8944;SDS011;4507;40.232;29.132;2022-12-31T16:05:55;89.10;;;52.67;;
8944;SDS011;4507;40.232;29.132;2022-12-31T16:08:29;81.73;;;52.73;;
8944;SDS011;4507;40.232;29.132;2022-12-31T16:11:02;85.33;;;53.23;;
8944;SDS011;4507;40.232;29.132;2022-12-31T16:13:32;78.27;;;53.17;;
8944;SDS011;4507;40.232;29.132;2022-12-31T16:16:18;81.37;;;51.17;;
8944;SDS011;4507;40.232;29.132;2022-12-31T16:18:52;96.83;;;52.73;;
8944;SDS011;4507;40.232;29.132;2022-12-31T16:21:25;68.73;;;47.17;;
8944;SDS011;4507;40.232;29.132;2022-12-31T16:23:59;75.37;;;49.93;;
8944;SDS011;4507;40.232;29.132;2022-12-31T16:26:31;69.87;;;46.57;;
8944;SDS011;4507;40.232;29.132;2022-12-31T16:29:04;63.83;;;47.00;;